No particular awareness of the weather is required.    There are no Weather-warnings


Meteo18 Weather Cam more information Meteo18 Weather Cam


Thunder radar more information blitzortung!


Rain radar more information rain snow radar


Visit our other weather sites:

Template documentation
and downloads

And another site



Weather Underground History page Text

Daily Summary for November 21, 2017 Units:  Both    English   Metric
« Previous Day
Next Day »
Daily Weekly Monthly Yearly Custom
  High: Low: Average:
Temperature: 52.5 °F /  11.4 °C 37.9 °F /  3.3 °C 45 °F /  7.2 °C
Dew Point: 47.8 °F /  8.8 °C 37.2 °F /  2.9 °C 42.8 °F /  6 °C
Humidity: 100 % 78 % 92 %
Wind Speed: 6 mph /  9.7 km/h - 1.2 mph /  2 km/h
Wind Gust: 10 mph /  16.1 km/h - -
Wind:- - SW
Pressure: 30.2 in /  1022.6 hPa 30 in /  1017.2 hPa -
Precipitation: 0 in /  0.0 mm    
Historical Graphs
 
 
Tabular Data for November 21, 2017
Time Temperature Dew Point Pressure Wind Wind Speed Wind Gust Humidity Rainfall Rate (Hourly)
00:02 43.3 °F /  6.3 °C 42.1 °F /  5.6 °C 30.2 in /  1022.6 hPa Calm   5 mph /  8.0 km/h 95 % 0 in /  0.0 mm
00:12 43.2 °F /  6.2 °C 41.9 °F /  5.5 °C 30.2 in /  1022.6 hPa Calm   2 mph /  3.2 km/h 95 % 0 in /  0.0 mm
00:22 42.8 °F /  6.0 °C 41.5 °F /  5.3 °C 30.2 in /  1022.6 hPa Calm   2 mph /  3.2 km/h 95 % 0 in /  0.0 mm
00:52 43.3 °F /  6.3 °C 42.3 °F /  5.7 °C 30.2 in /  1022.2 hPa SW 3 mph /  4.8 km/h 5 mph /  8.0 km/h 96 % 0 in /  0.0 mm
01:12 43.9 °F /  6.6 °C 43.2 °F /  6.2 °C 30.2 in /  1022.2 hPa SSW 2 mph /  3.2 km/h 7 mph /  11.3 km/h 97 % 0 in /  0.0 mm
01:17 44.2 °F /  6.8 °C 43.5 °F /  6.4 °C 30.2 in /  1022.2 hPa SW 4 mph /  6.4 km/h 7 mph /  11.3 km/h 97 % 0 in /  0.0 mm
01:27 44.6 °F /  7.0 °C 43.9 °F /  6.6 °C 30.2 in /  1022.2 hPa SW 3 mph /  4.8 km/h 9 mph /  14.5 km/h 97 % 0 in /  0.0 mm
01:32 44.8 °F /  7.1 °C 44.1 °F /  6.7 °C 30.2 in /  1022.2 hPa SW 6 mph /  9.7 km/h 9 mph /  14.5 km/h 97 % 0 in /  0.0 mm
01:37 45 °F /  7.2 °C 44.2 °F /  6.8 °C 30.2 in /  1022.2 hPa West 3 mph /  4.8 km/h 9 mph /  14.5 km/h 97 % 0 in /  0.0 mm
01:42 45 °F /  7.2 °C 44.2 °F /  6.8 °C 30.2 in /  1022.2 hPa SW 1 mph /  1.6 km/h 9 mph /  14.5 km/h 97 % 0 in /  0.0 mm
02:02 45.1 °F /  7.3 °C 44.4 °F /  6.9 °C 30.2 in /  1022.2 hPa WSW 1 mph /  1.6 km/h 5 mph /  8.0 km/h 97 % 0 in /  0.0 mm
02:07 45.1 °F /  7.3 °C 44.4 °F /  6.9 °C 30.2 in /  1022.2 hPa Calm   5 mph /  8.0 km/h 97 % 0 in /  0.0 mm
02:17 45.1 °F /  7.3 °C 44.4 °F /  6.9 °C 30.2 in /  1022.2 hPa Calm   3 mph /  4.8 km/h 97 % 0 in /  0.0 mm
02:22 45.1 °F /  7.3 °C 44.4 °F /  6.9 °C 30.2 in /  1022.2 hPa Calm   2 mph /  3.2 km/h 97 % 0 in /  0.0 mm
02:32 45 °F /  7.2 °C 44.2 °F /  6.8 °C 30.2 in /  1021.9 hPa SSE 1 mph /  1.6 km/h 2 mph /  3.2 km/h 97 % 0 in /  0.0 mm
02:37 45 °F /  7.2 °C 44.2 °F /  6.8 °C 30.2 in /  1021.9 hPa Calm   2 mph /  3.2 km/h 97 % 0 in /  0.0 mm
02:42 45.1 °F /  7.3 °C 44.4 °F /  6.9 °C 30.2 in /  1022.2 hPa Calm   2 mph /  3.2 km/h 97 % 0 in /  0.0 mm
02:57 45.1 °F /  7.3 °C 44.4 °F /  6.9 °C 30.2 in /  1021.9 hPa SW 2 mph /  3.2 km/h 2 mph /  3.2 km/h 97 % 0 in /  0.0 mm
03:02 45.1 °F /  7.3 °C 44.4 °F /  6.9 °C 30.2 in /  1021.9 hPa WSW 1 mph /  1.6 km/h 3 mph /  4.8 km/h 97 % 0 in /  0.0 mm
03:07 45.3 °F /  7.4 °C 44.6 °F /  7.0 °C 30.2 in /  1021.9 hPa SW 1 mph /  1.6 km/h 3 mph /  4.8 km/h 97 % 0 in /  0.0 mm
03:12 44.2 °F /  6.8 °C 44.2 °F /  6.8 °C 30.2 in /  1021.9 hPa WSW 4 mph /  6.4 km/h 4 mph /  6.4 km/h 100 % 0 in /  0.0 mm
08:47 37.9 °F /  3.3 °C 37.2 °F /  2.9 °C 30.2 in /  1021.6 hPa SSW 1 mph /  1.6 km/h 3 mph /  4.8 km/h 97 % 0 in /  0.0 mm
08:52 37.9 °F /  3.3 °C 37.2 °F /  2.9 °C 30.2 in /  1021.6 hPa SSW 1 mph /  1.6 km/h 3 mph /  4.8 km/h 97 % 0 in /  0.0 mm
08:57 37.9 °F /  3.3 °C 37.2 °F /  2.9 °C 30.2 in /  1021.6 hPa SSW 1 mph /  1.6 km/h 5 mph /  8.0 km/h 97 % 0 in /  0.0 mm
09:02 38.1 °F /  3.4 °C 37.4 °F /  3.0 °C 30.2 in /  1021.6 hPa SSW 2 mph /  3.2 km/h 5 mph /  8.0 km/h 97 % 0 in /  0.0 mm
09:12 38.1 °F /  3.4 °C 37.4 °F /  3.0 °C 30.2 in /  1021.6 hPa South 3 mph /  4.8 km/h 5 mph /  8.0 km/h 97 % 0 in /  0.0 mm
09:17 38.1 °F /  3.4 °C 37.4 °F /  3.0 °C 30.2 in /  1021.6 hPa SW 2 mph /  3.2 km/h 4 mph /  6.4 km/h 97 % 0 in /  0.0 mm
09:32 38.1 °F /  3.4 °C 37.4 °F /  3.0 °C 30.2 in /  1021.6 hPa SSW 4 mph /  6.4 km/h 4 mph /  6.4 km/h 97 % 0 in /  0.0 mm
09:37 38.1 °F /  3.4 °C 37.4 °F /  3.0 °C 30.2 in /  1021.6 hPa SW 2 mph /  3.2 km/h 3 mph /  4.8 km/h 97 % 0 in /  0.0 mm
09:42 38.1 °F /  3.4 °C 37.4 °F /  3.0 °C 30.2 in /  1021.6 hPa SSW 1 mph /  1.6 km/h 4 mph /  6.4 km/h 97 % 0 in /  0.0 mm
09:52 38.5 °F /  3.6 °C 37.8 °F /  3.2 °C 30.2 in /  1021.6 hPa SSW 2 mph /  3.2 km/h 4 mph /  6.4 km/h 97 % 0 in /  0.0 mm
09:57 38.5 °F /  3.6 °C 37.8 °F /  3.2 °C 30.2 in /  1021.6 hPa WSW 3 mph /  4.8 km/h 3 mph /  4.8 km/h 97 % 0 in /  0.0 mm
10:02 38.5 °F /  3.6 °C 37.8 °F /  3.2 °C 30.2 in /  1021.6 hPa SSW 1 mph /  1.6 km/h 3 mph /  4.8 km/h 97 % 0 in /  0.0 mm
10:07 38.7 °F /  3.7 °C 37.9 °F /  3.3 °C 30.2 in /  1021.6 hPa SW 2 mph /  3.2 km/h 3 mph /  4.8 km/h 97 % 0 in /  0.0 mm
10:17 38.7 °F /  3.7 °C 37.9 °F /  3.3 °C 30.2 in /  1021.6 hPa Calm   4 mph /  6.4 km/h 97 % 0 in /  0.0 mm
10:22 38.8 °F /  3.8 °C 38.3 °F /  3.5 °C 30.2 in /  1021.6 hPa South 1 mph /  1.6 km/h 4 mph /  6.4 km/h 98 % 0 in /  0.0 mm
10:32 39 °F /  3.9 °C 38.5 °F /  3.6 °C 30.2 in /  1021.6 hPa SSW 3 mph /  4.8 km/h 3 mph /  4.8 km/h 98 % 0 in /  0.0 mm
10:42 39 °F /  3.9 °C 38.3 °F /  3.5 °C 30.2 in /  1021.2 hPa SSW 2 mph /  3.2 km/h 5 mph /  8.0 km/h 97 % 0 in /  0.0 mm
10:47 39.2 °F /  4.0 °C 38.5 °F /  3.6 °C 30.2 in /  1021.2 hPa Calm   5 mph /  8.0 km/h 97 % 0 in /  0.0 mm
11:02 39.4 °F /  4.1 °C 38.7 °F /  3.7 °C 30.2 in /  1021.2 hPa SW 1 mph /  1.6 km/h 4 mph /  6.4 km/h 97 % 0 in /  0.0 mm
11:12 39.6 °F /  4.2 °C 38.8 °F /  3.8 °C 30.2 in /  1021.2 hPa Calm   4 mph /  6.4 km/h 97 % 0 in /  0.0 mm
11:17 39.7 °F /  4.3 °C 39 °F /  3.9 °C 30.2 in /  1021.2 hPa SW 1 mph /  1.6 km/h 4 mph /  6.4 km/h 97 % 0 in /  0.0 mm
11:47 41.2 °F /  5.1 °C 40.6 °F /  4.8 °C 30.2 in /  1020.9 hPa SW 1 mph /  1.6 km/h 4 mph /  6.4 km/h 98 % 0 in /  0.0 mm
11:52 41.5 °F /  5.3 °C 41 °F /  5.0 °C 30.2 in /  1020.9 hPa SSW 3 mph /  4.8 km/h 4 mph /  6.4 km/h 98 % 0 in /  0.0 mm
11:57 42.1 °F /  5.6 °C 41.5 °F /  5.3 °C 30.2 in /  1020.9 hPa SSW 1 mph /  1.6 km/h 4 mph /  6.4 km/h 98 % 0 in /  0.0 mm
12:02 42.3 °F /  5.7 °C 41.7 °F /  5.4 °C 30.2 in /  1020.9 hPa SE 1 mph /  1.6 km/h 4 mph /  6.4 km/h 98 % 0 in /  0.0 mm
12:12 43 °F /  6.1 °C 42.4 °F /  5.8 °C 30.1 in /  1020.5 hPa Calm   4 mph /  6.4 km/h 98 % 0 in /  0.0 mm
12:32 45.1 °F /  7.3 °C 44.6 °F /  7.0 °C 30.1 in /  1020.2 hPa Calm   3 mph /  4.8 km/h 98 % 0 in /  0.0 mm
12:52 46.9 °F /  8.3 °C 46.4 °F /  8.0 °C 30.1 in /  1019.9 hPa SSW 1 mph /  1.6 km/h 3 mph /  4.8 km/h 98 % 0 in /  0.0 mm
13:02 47.7 °F /  8.7 °C 47.1 °F /  8.4 °C 30.1 in /  1019.9 hPa WSW 3 mph /  4.8 km/h 4 mph /  6.4 km/h 98 % 0 in /  0.0 mm
13:12 48.4 °F /  9.1 °C 47.8 °F /  8.8 °C 30.1 in /  1019.9 hPa SSW 3 mph /  4.8 km/h 5 mph /  8.0 km/h 98 % 0 in /  0.0 mm
13:17 48.7 °F /  9.3 °C 47.8 °F /  8.8 °C 30.1 in /  1019.9 hPa SW 5 mph /  8.0 km/h 6 mph /  9.7 km/h 97 % 0 in /  0.0 mm
13:22 48.9 °F /  9.4 °C 47.8 °F /  8.8 °C 30.1 in /  1019.5 hPa South 2 mph /  3.2 km/h 7 mph /  11.3 km/h 96 % 0 in /  0.0 mm
13:32 49.8 °F /  9.9 °C 47.7 °F /  8.7 °C 30.1 in /  1019.5 hPa WSW 5 mph /  8.0 km/h 7 mph /  11.3 km/h 92 % 0 in /  0.0 mm
13:47 51.4 °F /  10.8 °C 46.2 °F /  7.9 °C 30.1 in /  1019.2 hPa WSW 4 mph /  6.4 km/h 10 mph /  16.1 km/h 82 % 0 in /  0.0 mm
13:52 51.6 °F /  10.9 °C 46 °F /  7.8 °C 30.1 in /  1019.2 hPa WSW 5 mph /  8.0 km/h 10 mph /  16.1 km/h 81 % 0 in /  0.0 mm
13:57 51.6 °F /  10.9 °C 45.7 °F /  7.6 °C 30.1 in /  1019.2 hPa SW 4 mph /  6.4 km/h 10 mph /  16.1 km/h 80 % 0 in /  0.0 mm
14:02 52.2 °F /  11.2 °C 46.8 °F /  8.2 °C 30.1 in /  1019.2 hPa SSW 5 mph /  8.0 km/h 10 mph /  16.1 km/h 82 % 0 in /  0.0 mm
14:07 52.2 °F /  11.2 °C 45.5 °F /  7.5 °C 30.1 in /  1019.2 hPa SW 5 mph /  8.0 km/h 10 mph /  16.1 km/h 78 % 0 in /  0.0 mm
14:12 52.3 °F /  11.3 °C 45.7 °F /  7.6 °C 30.1 in /  1019.2 hPa West 5 mph /  8.0 km/h 10 mph /  16.1 km/h 78 % 0 in /  0.0 mm
14:22 52.2 °F /  11.2 °C 45.5 °F /  7.5 °C 30.1 in /  1019.2 hPa SW 4 mph /  6.4 km/h 10 mph /  16.1 km/h 78 % 0 in /  0.0 mm
14:27 52.2 °F /  11.2 °C 45.5 °F /  7.5 °C 30.1 in /  1019.2 hPa SW 3 mph /  4.8 km/h 10 mph /  16.1 km/h 78 % 0 in /  0.0 mm
14:42 52.3 °F /  11.3 °C 45.7 °F /  7.6 °C 30.1 in /  1018.8 hPa SW 3 mph /  4.8 km/h 4 mph /  6.4 km/h 78 % 0 in /  0.0 mm
14:52 52.3 °F /  11.3 °C 45.7 °F /  7.6 °C 30.1 in /  1018.8 hPa SW 5 mph /  8.0 km/h 6 mph /  9.7 km/h 78 % 0 in /  0.0 mm
15:02 52.5 °F /  11.4 °C 46.2 °F /  7.9 °C 30.1 in /  1018.8 hPa WSW 3 mph /  4.8 km/h 6 mph /  9.7 km/h 79 % 0 in /  0.0 mm
15:12 52.2 °F /  11.2 °C 46.2 °F /  7.9 °C 30.1 in /  1018.8 hPa SSW 2 mph /  3.2 km/h 6 mph /  9.7 km/h 80 % 0 in /  0.0 mm
15:22 52 °F /  11.1 °C 46.9 °F /  8.3 °C 30.1 in /  1018.5 hPa SW 2 mph /  3.2 km/h 6 mph /  9.7 km/h 83 % 0 in /  0.0 mm
15:27 51.8 °F /  11.0 °C 46.8 °F /  8.2 °C 30.1 in /  1018.5 hPa WSW 1 mph /  1.6 km/h 5 mph /  8.0 km/h 83 % 0 in /  0.0 mm
15:32 51.6 °F /  10.9 °C 46.2 °F /  7.9 °C 30.1 in /  1018.8 hPa SW 1 mph /  1.6 km/h 3 mph /  4.8 km/h 82 % 0 in /  0.0 mm
15:37 51.6 °F /  10.9 °C 46 °F /  7.8 °C 30.1 in /  1018.5 hPa WSW 1 mph /  1.6 km/h 3 mph /  4.8 km/h 81 % 0 in /  0.0 mm
15:42 51.6 °F /  10.9 °C 46 °F /  7.8 °C 30.1 in /  1018.5 hPa SW 3 mph /  4.8 km/h 3 mph /  4.8 km/h 81 % 0 in /  0.0 mm
15:47 51.6 °F /  10.9 °C 46 °F /  7.8 °C 30.1 in /  1018.5 hPa SW 1 mph /  1.6 km/h 3 mph /  4.8 km/h 81 % 0 in /  0.0 mm
15:52 51.6 °F /  10.9 °C 46.2 °F /  7.9 °C 30.1 in /  1018.5 hPa SW 2 mph /  3.2 km/h 3 mph /  4.8 km/h 82 % 0 in /  0.0 mm
15:57 51.4 °F /  10.8 °C 46.2 °F /  7.9 °C 30.1 in /  1018.5 hPa WSW 1 mph /  1.6 km/h 3 mph /  4.8 km/h 82 % 0 in /  0.0 mm
16:02 51.4 °F /  10.8 °C 46.2 °F /  7.9 °C 30.1 in /  1018.8 hPa WSW 1 mph /  1.6 km/h 3 mph /  4.8 km/h 82 % 0 in /  0.0 mm
16:12 51.4 °F /  10.8 °C 45.9 °F /  7.7 °C 30.1 in /  1018.5 hPa SW 1 mph /  1.6 km/h 4 mph /  6.4 km/h 81 % 0 in /  0.0 mm
16:17 51.3 °F /  10.7 °C 46 °F /  7.8 °C 30.1 in /  1018.5 hPa SSW 1 mph /  1.6 km/h 4 mph /  6.4 km/h 82 % 0 in /  0.0 mm
16:22 51.3 °F /  10.7 °C 46.2 °F /  7.9 °C 30.1 in /  1018.5 hPa Calm   3 mph /  4.8 km/h 83 % 0 in /  0.0 mm
16:27 50.9 °F /  10.5 °C 45.9 °F /  7.7 °C 30.1 in /  1018.5 hPa SW 1 mph /  1.6 km/h 3 mph /  4.8 km/h 83 % 0 in /  0.0 mm
16:32 50.5 °F /  10.3 °C 45.9 °F /  7.7 °C 30.1 in /  1018.5 hPa Calm   2 mph /  3.2 km/h 84 % 0 in /  0.0 mm
16:37 50.4 °F /  10.2 °C 46 °F /  7.8 °C 30.1 in /  1018.5 hPa Calm   2 mph /  3.2 km/h 85 % 0 in /  0.0 mm
16:42 50.2 °F /  10.1 °C 46.2 °F /  7.9 °C 30.1 in /  1018.2 hPa Calm   1 mph /  1.6 km/h 86 % 0 in /  0.0 mm
16:47 49.6 °F /  9.8 °C 45.7 °F /  7.6 °C 30.1 in /  1018.2 hPa Calm   1 mph /  1.6 km/h 86 % 0 in /  0.0 mm
16:52 49.5 °F /  9.7 °C 45.7 °F /  7.6 °C 30.1 in /  1018.2 hPa Calm   1 mph /  1.6 km/h 87 % 0 in /  0.0 mm
17:02 48.7 °F /  9.3 °C 45.3 °F /  7.4 °C 30.1 in /  1018.2 hPa Calm   1 mph /  1.6 km/h 88 % 0 in /  0.0 mm
17:12 48.2 °F /  9.0 °C 45.3 °F /  7.4 °C 30.1 in /  1018.2 hPa SW 1 mph /  1.6 km/h 1 mph /  1.6 km/h 90 % 0 in /  0.0 mm
17:17 48 °F /  8.9 °C 45.1 °F /  7.3 °C 30.1 in /  1018.2 hPa Calm   1 mph /  1.6 km/h 90 % 0 in /  0.0 mm
17:22 48.2 °F /  9.0 °C 45.1 °F /  7.3 °C 30.1 in /  1017.8 hPa Calm   2 mph /  3.2 km/h 89 % 0 in /  0.0 mm
17:42 47.7 °F /  8.7 °C 45 °F /  7.2 °C 30.1 in /  1018.2 hPa Calm   1 mph /  1.6 km/h 90 % 0 in /  0.0 mm
17:57 47.7 °F /  8.7 °C 45.1 °F /  7.3 °C 30.1 in /  1018.2 hPa Calm   1 mph /  1.6 km/h 91 % 0 in /  0.0 mm
18:02 47.7 °F /  8.7 °C 45 °F /  7.2 °C 30.1 in /  1018.2 hPa Calm   1 mph /  1.6 km/h 90 % 0 in /  0.0 mm
18:07 46.9 °F /  8.3 °C 44.2 °F /  6.8 °C 30.1 in /  1017.8 hPa Calm   2 mph /  3.2 km/h 90 % 0 in /  0.0 mm
18:17 46.2 °F /  7.9 °C 43.7 °F /  6.5 °C 30.1 in /  1017.8 hPa Calm   2 mph /  3.2 km/h 91 % 0 in /  0.0 mm
18:27 45.5 °F /  7.5 °C 43.3 °F /  6.3 °C 30.1 in /  1018.2 hPa Calm   3 mph /  4.8 km/h 92 % 0 in /  0.0 mm
18:32 45.3 °F /  7.4 °C 43.2 °F /  6.2 °C 30.1 in /  1018.2 hPa Calm   1 mph /  1.6 km/h 92 % 0 in /  0.0 mm
18:52 45.5 °F /  7.5 °C 43.3 °F /  6.3 °C 30.1 in /  1017.8 hPa Calm   2 mph /  3.2 km/h 92 % 0 in /  0.0 mm
19:02 45 °F /  7.2 °C 43 °F /  6.1 °C 30.1 in /  1018.2 hPa WNW 2 mph /  3.2 km/h 2 mph /  3.2 km/h 93 % 0 in /  0.0 mm
19:07 44.8 °F /  7.1 °C 42.8 °F /  6.0 °C 30.1 in /  1018.2 hPa NNE 1 mph /  1.6 km/h 2 mph /  3.2 km/h 93 % 0 in /  0.0 mm
19:17 44.8 °F /  7.1 °C 43.5 °F /  6.4 °C 30.1 in /  1017.8 hPa Calm   3 mph /  4.8 km/h 95 % 0 in /  0.0 mm
19:22 45.1 °F /  7.3 °C 43.9 °F /  6.6 °C 30.1 in /  1017.8 hPa Calm   3 mph /  4.8 km/h 95 % 0 in /  0.0 mm
19:27 45 °F /  7.2 °C 43.3 °F /  6.3 °C 30.1 in /  1017.8 hPa Calm   2 mph /  3.2 km/h 94 % 0 in /  0.0 mm
19:37 44.2 °F /  6.8 °C 42.3 °F /  5.7 °C 30.1 in /  1017.8 hPa Calm   1 mph /  1.6 km/h 93 % 0 in /  0.0 mm
19:42 44.1 °F /  6.7 °C 42.4 °F /  5.8 °C 30.1 in /  1017.8 hPa Calm     94 % 0 in /  0.0 mm
19:47 43.7 °F /  6.5 °C 42.1 °F /  5.6 °C 30.1 in /  1017.8 hPa Calm   1 mph /  1.6 km/h 94 % 0 in /  0.0 mm
19:52 43.5 °F /  6.4 °C 41.9 °F /  5.5 °C 30.1 in /  1017.8 hPa Calm   1 mph /  1.6 km/h 94 % 0 in /  0.0 mm
19:57 43.2 °F /  6.2 °C 41.5 °F /  5.3 °C 30.1 in /  1017.8 hPa Calm   1 mph /  1.6 km/h 94 % 0 in /  0.0 mm
20:02 43 °F /  6.1 °C 41.4 °F /  5.2 °C 30.1 in /  1017.8 hPa Calm   1 mph /  1.6 km/h 94 % 0 in /  0.0 mm
20:17 43.3 °F /  6.3 °C 42.1 °F /  5.6 °C 30.1 in /  1017.8 hPa Calm   1 mph /  1.6 km/h 95 % 0 in /  0.0 mm
20:22 43 °F /  6.1 °C 41.7 °F /  5.4 °C 30.1 in /  1017.8 hPa Calm   1 mph /  1.6 km/h 95 % 0 in /  0.0 mm
20:32 42.4 °F /  5.8 °C 41.2 °F /  5.1 °C 30.1 in /  1017.8 hPa Calm   1 mph /  1.6 km/h 95 % 0 in /  0.0 mm
20:37 43 °F /  6.1 °C 41.9 °F /  5.5 °C 30.1 in /  1017.5 hPa Calm   1 mph /  1.6 km/h 96 % 0 in /  0.0 mm
20:42 43.7 °F /  6.5 °C 43 °F /  6.1 °C 30.1 in /  1017.5 hPa Calm   1 mph /  1.6 km/h 97 % 0 in /  0.0 mm
20:47 44.1 °F /  6.7 °C 43 °F /  6.1 °C 30.1 in /  1017.8 hPa Calm   1 mph /  1.6 km/h 96 % 0 in /  0.0 mm
20:57 43.5 °F /  6.4 °C 41.9 °F /  5.5 °C 30.1 in /  1017.8 hPa Calm   2 mph /  3.2 km/h 94 % 0 in /  0.0 mm
21:17 41.4 °F /  5.2 °C 39.7 °F /  4.3 °C 30.1 in /  1017.5 hPa Calm   1 mph /  1.6 km/h 94 % 0 in /  0.0 mm
21:32 40.8 °F /  4.9 °C 39.6 °F /  4.2 °C 30.1 in /  1017.5 hPa Calm     95 % 0 in /  0.0 mm
21:52 40.8 °F /  4.9 °C 39.7 °F /  4.3 °C 30.1 in /  1017.5 hPa Calm     96 % 0 in /  0.0 mm
22:02 40.8 °F /  4.9 °C 39.7 °F /  4.3 °C 30.1 in /  1017.5 hPa Calm     96 % 0 in /  0.0 mm
22:12 40.6 °F /  4.8 °C 39.6 °F /  4.2 °C 30.1 in /  1017.5 hPa Calm     96 % 0 in /  0.0 mm
22:22 40.3 °F /  4.6 °C 39.2 °F /  4.0 °C 30.1 in /  1017.5 hPa Calm     96 % 0 in /  0.0 mm
22:42 40.1 °F /  4.5 °C 39 °F /  3.9 °C 30.1 in /  1017.5 hPa Calm     96 % 0 in /  0.0 mm
22:57 39.6 °F /  4.2 °C 38.5 °F /  3.6 °C 30 in /  1017.2 hPa Calm   1 mph /  1.6 km/h 96 % 0 in /  0.0 mm
23:02 39.2 °F /  4.0 °C 38.1 °F /  3.4 °C 30 in /  1017.2 hPa Calm   1 mph /  1.6 km/h 96 % 0 in /  0.0 mm
23:12 38.8 °F /  3.8 °C 37.8 °F /  3.2 °C 30 in /  1017.2 hPa Calm   1 mph /  1.6 km/h 96 % 0 in /  0.0 mm
23:42 39.2 °F /  4.0 °C 38.5 °F /  3.6 °C 30 in /  1017.2 hPa SSW 1 mph /  1.6 km/h 1 mph /  1.6 km/h 97 % 0 in /  0.0 mm
23:52 39.2 °F /  4.0 °C 38.5 °F /  3.6 °C 30 in /  1017.2 hPa Calm   1 mph /  1.6 km/h 97 % 0 in /  0.0 mm
Meteo18
Compliments of Weather Underground - 4 mb

Script developed by  Jim McMurry - jmcmurry@mwt.net Adapted for the template by  Wim van der Kuil - Leuven-Template.eu

You find our weather info also at:

European Weather Network

Weather Underground

Equipment we use:

Weather-station
Davis Vue

Weather-program
Meteohub

Weather-server
Raspberry PI 2 B+

Provider
1 and 1

Davis Vue

Meteohub

Raspberry PI 2 B+

1 and 1